Time;durP1;ratioP1;P1;durP2;ratioP2;P2;SDS_P1;SDS_P2;PMS_P1;PMS_P2;Temp;Humidity;BMP_temperature;BMP_pressure;BME280_temperature;BME280_humidity;BME280_pressure;Samples;Min_cycle;Max_cycle;Signal;HPM_P1;HPM_P2
2022/12/09 00:01:58;;;;;;;47.65;27.58;;;-0.40;99.90;;;;;;5058939;28;20508;-43
2022/12/09 00:04:24;;;;;;;49.72;29.38;;;-0.50;99.90;;;;;;5057554;28;20067;-43
2022/12/09 00:06:50;;;;;;;49.83;28.30;;;-0.50;99.90;;;;;;5058585;28;20346;-43
2022/12/09 00:09:16;;;;;;;46.15;26.52;;;-0.60;99.90;;;;;;5058325;28;20471;-43
2022/12/09 00:11:44;;;;;;;43.83;25.30;;;-0.60;99.90;;;;;;5054097;28;20471;-46
2022/12/09 00:14:11;;;;;;;48.85;25.70;;;-0.50;99.90;;;;;;5052792;28;20091;-43
2022/12/09 00:16:37;;;;;;;45.42;24.40;;;-0.60;99.90;;;;;;5057872;28;20045;-43
2022/12/09 00:19:03;;;;;;;40.75;23.85;;;-0.60;99.90;;;;;;5058397;28;20056;-44
2022/12/09 00:21:31;;;;;;;49.42;25.48;;;-0.70;99.90;;;;;;5058202;28;20427;-43
2022/12/09 00:23:59;;;;;;;49.15;24.00;;;-0.70;99.90;;;;;;5057152;28;20491;-46
2022/12/09 00:26:26;;;;;;;48.72;24.80;;;-0.60;99.90;;;;;;5059555;28;20116;-42
2022/12/09 00:28:52;;;;;;;42.15;21.95;;;-0.50;99.90;;;;;;5057163;28;20600;-43
2022/12/09 00:31:23;;;;;;;43.45;22.65;;;-0.70;99.90;;;;;;5057851;28;20052;-43
2022/12/09 00:33:49;;;;;;;45.60;25.08;;;-0.60;99.90;;;;;;5059516;28;20037;-42
2022/12/09 00:36:18;;;;;;;45.95;23.40;;;-0.70;99.90;;;;;;5058681;28;20048;-44
2022/12/09 00:38:44;;;;;;;49.42;24.70;;;-0.80;99.90;;;;;;5057946;28;20074;-43
2022/12/09 00:41:11;;;;;;;44.78;23.67;;;-0.70;99.90;;;;;;5057601;28;20036;-43
2022/12/09 00:43:37;;;;;;;43.83;22.50;;;-0.70;99.90;;;;;;5057643;28;20120;-44
2022/12/09 00:46:03;;;;;;;48.65;23.98;;;-0.80;99.90;;;;;;5057649;28;20082;-45
2022/12/09 00:48:29;;;;;;;44.55;21.30;;;-0.70;99.90;;;;;;5060045;28;20102;-47
2022/12/09 00:50:55;;;;;;;36.03;19.17;;;-1.00;99.90;;;;;;5067111;28;20055;-43
2022/12/09 00:53:21;;;;;;;54.67;24.73;;;-1.00;99.90;;;;;;5057504;28;20092;-42
2022/12/09 00:55:47;;;;;;;47.05;23.55;;;-1.00;99.90;;;;;;5048187;28;20049;-44
2022/12/09 00:58:13;;;;;;;55.13;23.70;;;-0.90;99.90;;;;;;5054414;28;20090;-43
2022/12/09 01:00:39;;;;;;;45.42;23.88;;;-1.00;99.90;;;;;;5056567;28;20099;-43
2022/12/09 01:03:05;;;;;;;41.25;21.10;;;-0.90;99.90;;;;;;5056746;28;20117;-41
2022/12/09 01:05:34;;;;;;;34.65;19.02;;;-1.00;99.90;;;;;;5056959;28;20426;-45
2022/12/09 01:07:59;;;;;;;35.17;19.35;;;-0.90;99.90;;;;;;5057269;28;20051;-44
2022/12/09 01:10:25;;;;;;;36.30;19.70;;;-0.80;99.90;;;;;;5057825;28;20048;-41
2022/12/09 01:12:51;;;;;;;34.75;19.33;;;-0.80;99.90;;;;;;5046301;28;20457;-43
2022/12/09 01:15:16;;;;;;;39.97;20.77;;;-0.70;99.90;;;;;;5056768;28;20047;-44
2022/12/09 01:17:42;;;;;;;35.45;18.80;;;-0.60;99.90;;;;;;5055365;28;20386;-45
2022/12/09 01:20:09;;;;;;;35.53;18.38;;;-0.70;99.90;;;;;;5057079;28;20930;-44
2022/12/09 01:22:35;;;;;;;39.00;20.98;;;-0.60;99.90;;;;;;5054627;28;20513;-47
2022/12/09 01:25:01;;;;;;;36.40;19.63;;;-0.80;99.90;;;;;;5057769;28;20040;-44
2022/12/09 01:27:29;;;;;;;39.70;20.33;;;-0.90;99.90;;;;;;5055782;28;20106;-43
2022/12/09 01:29:55;;;;;;;35.53;18.83;;;-0.90;99.90;;;;;;5057338;28;20040;-42
2022/12/09 01:32:20;;;;;;;36.80;19.70;;;-0.90;99.90;;;;;;5056140;28;20076;-42
2022/12/09 01:34:46;;;;;;;35.55;18.88;;;-1.00;99.90;;;;;;5057328;28;20233;-44
2022/12/09 01:37:11;;;;;;;34.25;18.52;;;-1.00;99.90;;;;;;5057038;28;20375;-45
2022/12/09 01:39:37;;;;;;;34.45;18.60;;;-1.10;99.90;;;;;;5057016;28;20068;-42
2022/12/09 01:42:08;;;;;;;35.92;18.33;;;-1.10;99.90;;;;;;5056124;28;20048;-46
2022/12/09 01:44:35;;;;;;;36.85;18.17;;;-1.10;99.90;;;;;;5056532;28;20127;-49
2022/12/09 01:47:01;;;;;;;35.35;17.65;;;-1.10;99.90;;;;;;5056490;28;20133;-42
2022/12/09 01:49:36;;;;;;;32.42;18.45;;;-1.10;99.90;;;;;;5055847;28;20051;-45
2022/12/09 01:52:09;;;;;;;33.50;18.00;;;-1.10;99.90;;;;;;5055779;28;20152;-49
2022/12/09 01:54:36;;;;;;;35.30;17.50;;;-1.20;99.90;;;;;;5049362;28;20491;-43
2022/12/09 01:57:03;;;;;;;31.42;16.73;;;-1.20;99.90;;;;;;5042887;28;20063;-45
2022/12/09 01:59:29;;;;;;;35.45;18.23;;;-1.30;99.90;;;;;;5056688;28;20127;-46
2022/12/09 02:01:59;;;;;;;30.75;17.10;;;-1.30;99.90;;;;;;5056445;28;20495;-43
2022/12/09 02:04:27;;;;;;;36.00;17.48;;;-1.40;99.90;;;;;;5058161;28;20048;-45
2022/12/09 02:06:53;;;;;;;35.53;19.23;;;-1.30;99.90;;;;;;5068412;28;20054;-44
2022/12/09 02:09:19;;;;;;;34.92;18.80;;;-1.50;99.90;;;;;;5055636;28;20052;-43
2022/12/09 02:11:54;;;;;;;34.97;17.75;;;-1.40;99.90;;;;;;5051735;28;20061;-45
2022/12/09 02:14:25;;;;;;;32.45;17.52;;;-1.50;99.90;;;;;;5052392;28;20055;-43
2022/12/09 02:17:11;;;;;;;35.30;17.83;;;-1.40;99.90;;;;;;5056482;28;20575;-45
2022/12/09 02:20:08;;;;;;;30.65;17.08;;;-1.50;99.90;;;;;;5055483;28;20094;-44
2022/12/09 02:22:41;;;;;;;30.70;17.17;;;-1.50;99.90;;;;;;5055185;28;20182;-42
2022/12/09 02:25:20;;;;;;;32.77;16.30;;;-1.40;99.90;;;;;;5056364;28;20301;-43
2022/12/09 02:28:07;;;;;;;33.13;17.77;;;-1.40;99.90;;;;;;5044103;28;20322;-44
2022/12/09 02:31:12;;;;;;;33.05;15.88;;;-1.40;99.90;;;;;;5055560;28;20063;-47
2022/12/09 02:33:55;;;;;;;34.78;17.05;;;-1.50;99.90;;;;;;5055716;28;20048;-44
2022/12/09 02:36:26;;;;;;;29.88;16.15;;;-1.50;99.90;;;;;;5056641;28;20137;-44
2022/12/09 02:38:52;;;;;;;30.33;16.13;;;-1.40;99.90;;;;;;5057593;28;20043;-44
2022/12/09 02:41:26;;;;;;;27.10;16.45;;;-1.40;99.90;;;;;;5059954;28;20402;-43
2022/12/09 02:43:56;;;;;;;28.13;15.60;;;-1.50;99.90;;;;;;5072699;28;20094;-47
2022/12/09 02:46:23;;;;;;;33.00;16.65;;;-1.50;99.90;;;;;;5074007;28;20072;-47
2022/12/09 02:48:53;;;;;;;29.23;15.70;;;-1.50;99.90;;;;;;5059424;28;20525;-44
2022/12/09 02:51:21;;;;;;;31.13;15.43;;;-1.50;99.90;;;;;;5059997;28;20419;-44
2022/12/09 02:53:52;;;;;;;28.88;16.48;;;-1.50;99.90;;;;;;5059801;28;20336;-45
2022/12/09 02:56:19;;;;;;;28.25;16.25;;;-1.40;99.90;;;;;;5047320;28;20041;-43
2022/12/09 02:58:53;;;;;;;29.20;16.08;;;-1.40;99.90;;;;;;5060365;28;20044;-46
2022/12/09 03:01:34;;;;;;;30.83;15.73;;;-1.50;99.90;;;;;;5059424;28;20044;-45
2022/12/09 03:04:01;;;;;;;28.85;16.10;;;-1.40;99.90;;;;;;5060266;28;20154;-44
2022/12/09 03:06:34;;;;;;;30.02;16.00;;;-1.50;99.90;;;;;;5059886;28;20048;-45
2022/12/09 03:09:12;;;;;;;;;;;-1.60;99.90;;;;;;5060602;28;20055;-45
2022/12/09 03:11:39;;;;;;;31.35;15.30;;;-1.50;99.90;;;;;;5042939;28;19925;-42
2022/12/09 03:14:13;;;;;;;27.85;16.13;;;-1.60;99.90;;;;;;5053565;28;20634;-43
2022/12/09 03:16:52;;;;;;;27.83;14.93;;;-1.50;99.90;;;;;;5059490;28;20120;-42
2022/12/09 03:19:30;;;;;;;29.77;15.45;;;-1.60;99.90;;;;;;5058111;28;20048;-45
2022/12/09 03:22:00;;;;;;;26.42;14.82;;;-1.70;99.90;;;;;;5057722;28;20103;-42
2022/12/09 03:24:36;;;;;;;27.73;15.68;;;-1.60;99.90;;;;;;5059520;28;20048;-42
2022/12/09 03:27:05;;;;;;;27.90;16.33;;;-1.70;99.90;;;;;;5061709;28;20312;-46
2022/12/09 03:29:34;;;;;;;28.55;15.05;;;-1.60;99.90;;;;;;5059827;28;20044;-44
2022/12/09 03:32:00;;;;;;;28.63;15.43;;;-1.60;99.90;;;;;;5058219;28;20036;-45
2022/12/09 03:34:32;;;;;;;28.85;14.50;;;-1.60;99.90;;;;;;5059437;28;20051;-43
2022/12/09 03:37:00;;;;;;;24.52;14.55;;;-1.70;99.90;;;;;;5059688;28;20063;-41
2022/12/09 03:39:31;;;;;;;27.38;15.32;;;-1.70;99.90;;;;;;5059346;28;20040;-41
2022/12/09 03:42:01;;;;;;;29.02;14.10;;;-1.70;99.90;;;;;;5058256;28;20131;-42
2022/12/09 03:44:43;;;;;;;26.75;14.57;;;-1.70;99.90;;;;;;5059749;28;20129;-42
2022/12/09 03:47:09;;;;;;;26.65;13.88;;;-1.80;99.90;;;;;;5046382;28;20051;-42
2022/12/09 03:49:37;;;;;;;30.65;14.20;;;-1.80;99.90;;;;;;5058527;28;20045;-44
2022/12/09 03:52:19;;;;;;;29.15;16.83;;;-1.80;99.90;;;;;;5057330;28;20130;-45
2022/12/09 03:54:48;;;;;;;27.60;15.25;;;-1.80;99.90;;;;;;5057932;28;20080;-47
2022/12/09 03:57:16;;;;;;;26.13;15.68;;;-1.70;99.90;;;;;;5048034;28;20047;-46
2022/12/09 03:59:45;;;;;;;28.45;15.60;;;-1.80;99.90;;;;;;5027564;28;20541;-45
2022/12/09 04:02:11;;;;;;;26.85;14.27;;;-1.80;99.90;;;;;;5057126;28;20047;-42
2022/12/09 04:04:41;;;;;;;24.55;15.32;;;-1.90;99.90;;;;;;5056619;28;20052;-44
2022/12/09 04:07:09;;;;;;;26.83;15.50;;;-2.00;99.90;;;;;;5058295;28;20620;-46
2022/12/09 04:09:35;;;;;;;28.65;15.20;;;-2.00;99.90;;;;;;5056311;28;20049;-42
2022/12/09 04:12:00;;;;;;;27.88;14.80;;;-1.90;99.90;;;;;;5050554;28;20402;-43
2022/12/09 04:14:26;;;;;;;29.20;14.43;;;-2.00;99.90;;;;;;5056172;28;20049;-42
2022/12/09 04:16:52;;;;;;;23.40;14.60;;;-2.10;99.90;;;;;;5057822;28;20498;-45
2022/12/09 04:19:17;;;;;;;22.30;13.48;;;-2.00;99.90;;;;;;5058153;28;20056;-44
2022/12/09 04:21:43;;;;;;;29.92;15.82;;;-2.00;99.90;;;;;;5058482;28;20429;-43
2022/12/09 04:24:09;;;;;;;26.77;15.07;;;-2.10;99.90;;;;;;5057784;28;20098;-44
2022/12/09 04:26:35;;;;;;;24.75;14.73;;;-2.00;99.90;;;;;;5058169;28;20036;-43
2022/12/09 04:29:00;;;;;;;27.30;14.10;;;-2.10;99.90;;;;;;5057984;28;20097;-42
2022/12/09 04:31:26;;;;;;;26.42;14.80;;;-2.10;99.90;;;;;;5057989;28;20896;-44
2022/12/09 04:33:52;;;;;;;24.35;13.95;;;-2.00;99.90;;;;;;5055518;28;20133;-42
2022/12/09 04:36:18;;;;;;;29.33;15.55;;;-2.00;99.90;;;;;;5058001;28;20040;-43
2022/12/09 04:38:45;;;;;;;25.50;13.77;;;-2.10;99.90;;;;;;5057713;28;20049;-42
2022/12/09 04:41:12;;;;;;;27.52;14.48;;;-2.10;99.90;;;;;;5055987;28;20039;-43
2022/12/09 04:43:37;;;;;;;27.92;15.70;;;-2.00;99.90;;;;;;5057051;28;20900;-44
2022/12/09 04:46:06;;;;;;;27.05;14.18;;;-2.20;99.90;;;;;;5055906;28;20048;-42
2022/12/09 04:48:31;;;;;;;25.30;13.82;;;-2.10;99.90;;;;;;5057555;28;20049;-44
2022/12/09 04:50:58;;;;;;;25.92;15.23;;;-2.20;99.90;;;;;;5058208;28;20043;-44
2022/12/09 04:53:25;;;;;;;26.92;15.05;;;-2.20;99.90;;;;;;5057551;28;20051;-46
2022/12/09 04:56:23;;;;;;;32.55;15.38;;;-2.30;99.90;;;;;;5048051;28;20553;-46
2022/12/09 04:58:50;;;;;;;30.30;16.02;;;-2.40;99.90;;;;;;5014745;28;20344;-44
2022/12/09 05:01:19;;;;;;;30.27;16.83;;;-2.30;99.90;;;;;;4996637;28;20075;-41
2022/12/09 05:03:52;;;;;;;33.58;15.82;;;-2.30;99.90;;;;;;5014277;28;20454;-42
2022/12/09 05:06:20;;;;;;;29.60;15.50;;;-2.40;99.90;;;;;;5014642;28;20500;-44
2022/12/09 05:08:46;;;;;;;28.50;15.73;;;-2.40;99.90;;;;;;5014817;28;20108;-43
2022/12/09 05:11:16;;;;;;;35.20;17.92;;;-2.20;99.90;;;;;;5014248;28;20058;-44
2022/12/09 05:13:42;;;;;;;34.00;18.52;;;-2.30;99.90;;;;;;4997797;28;20052;-44
2022/12/09 05:16:11;;;;;;;33.10;16.20;;;-2.30;99.90;;;;;;5014296;28;20061;-45
2022/12/09 05:18:37;;;;;;;38.00;18.27;;;-2.30;99.90;;;;;;5014219;28;20050;-43
2022/12/09 05:21:10;;;;;;;33.25;16.95;;;-2.40;99.90;;;;;;5013972;28;20171;-44
2022/12/09 05:23:37;;;;;;;35.30;19.25;;;-2.30;99.90;;;;;;5013663;28;20383;-47
2022/12/09 05:26:04;;;;;;;48.22;23.30;;;-2.30;99.90;;;;;;5013728;28;20049;-44
2022/12/09 05:28:30;;;;;;;50.47;23.65;;;-2.10;99.90;;;;;;4998360;28;20061;-43
2022/12/09 05:31:00;;;;;;;43.28;20.88;;;-2.00;99.90;;;;;;5014243;28;20091;-42
2022/12/09 05:33:27;;;;;;;45.55;20.05;;;-1.90;99.90;;;;;;4999042;28;20582;-41
2022/12/09 05:35:53;;;;;;;42.70;20.85;;;-2.00;99.90;;;;;;5056970;28;20075;-45
2022/12/09 05:38:18;;;;;;;45.67;20.45;;;-1.90;99.90;;;;;;5056590;28;20052;-45
2022/12/09 05:40:44;;;;;;;37.42;18.30;;;-2.00;99.90;;;;;;5056147;28;20075;-43
2022/12/09 05:43:10;;;;;;;42.25;19.85;;;-1.90;99.90;;;;;;5054748;28;20051;-42
2022/12/09 05:45:35;;;;;;;38.90;19.75;;;-2.00;99.90;;;;;;5055537;28;20067;-41
2022/12/09 05:48:01;;;;;;;42.33;19.88;;;-1.90;99.90;;;;;;5055398;28;20052;-42
2022/12/09 05:50:27;;;;;;;45.88;20.58;;;-1.90;99.90;;;;;;5055416;28;20048;-46
2022/12/09 05:52:52;;;;;;;40.13;19.77;;;-1.90;99.90;;;;;;5056071;28;20133;-43
2022/12/09 05:55:18;;;;;;;46.58;20.08;;;-1.80;99.90;;;;;;5050916;28;20112;-42
2022/12/09 05:57:43;;;;;;;45.88;19.83;;;-2.00;99.90;;;;;;5050470;28;20129;-42
2022/12/09 06:00:10;;;;;;;48.30;21.55;;;-1.90;99.90;;;;;;5056735;28;20052;-44
2022/12/09 06:02:35;;;;;;;41.65;22.20;;;-1.80;99.90;;;;;;5056241;28;20483;-41
2022/12/09 06:05:01;;;;;;;47.65;22.15;;;-1.80;99.90;;;;;;5042987;28;20041;-43
2022/12/09 06:07:27;;;;;;;44.22;21.42;;;-1.70;99.90;;;;;;5056957;28;20048;-47
2022/12/09 06:09:53;;;;;;;43.92;22.13;;;-1.70;99.90;;;;;;5056848;28;20049;-43
2022/12/09 06:12:18;;;;;;;52.45;23.13;;;-1.70;99.90;;;;;;5047250;28;20045;-42
2022/12/09 06:14:44;;;;;;;47.33;20.85;;;-1.50;99.90;;;;;;5056758;28;20383;-43
2022/12/09 06:17:10;;;;;;;46.13;21.98;;;-1.60;99.90;;;;;;5055282;28;20098;-42
2022/12/09 06:19:35;;;;;;;59.85;28.33;;;-1.60;99.90;;;;;;5056010;28;20055;-41
2022/12/09 06:22:01;;;;;;;46.15;22.38;;;-1.70;99.90;;;;;;5055094;28;20041;-43
2022/12/09 06:24:27;;;;;;;53.42;26.25;;;-1.70;99.90;;;;;;5055599;28;20060;-48
2022/12/09 06:26:53;;;;;;;53.55;24.45;;;-1.80;99.90;;;;;;5056333;28;20365;-44
2022/12/09 06:29:19;;;;;;;44.10;23.27;;;-1.80;99.90;;;;;;5055274;28;20056;-42
2022/12/09 06:31:44;;;;;;;65.43;33.88;;;-1.90;99.90;;;;;;5055186;28;20052;-44
2022/12/09 06:34:10;;;;;;;62.22;31.05;;;-1.90;99.90;;;;;;5055806;28;20136;-42
2022/12/09 06:36:36;;;;;;;47.30;21.90;;;-1.90;99.90;;;;;;5055762;28;20087;-41
2022/12/09 06:39:03;;;;;;;43.65;21.00;;;-1.90;99.90;;;;;;5056116;28;20083;-46
2022/12/09 06:41:29;;;;;;;45.92;22.17;;;-1.90;99.90;;;;;;5056796;28;20118;-43
2022/12/09 06:43:59;;;;;;;51.58;23.05;;;-2.00;99.90;;;;;;5056386;28;20045;-43
2022/12/09 06:46:26;;;;;;;53.17;23.55;;;-1.90;99.90;;;;;;5056488;28;20041;-44
2022/12/09 06:48:53;;;;;;;59.13;25.27;;;-1.80;99.90;;;;;;5054773;28;20190;-42
2022/12/09 06:51:19;;;;;;;65.72;29.25;;;-1.70;99.90;;;;;;5055280;28;20475;-43
2022/12/09 06:53:46;;;;;;;68.97;32.25;;;-1.60;99.90;;;;;;5055552;28;20044;-42
2022/12/09 06:56:13;;;;;;;61.40;25.90;;;-1.80;99.90;;;;;;5046549;28;20063;-40
2022/12/09 06:58:41;;;;;;;61.40;27.38;;;-1.60;99.90;;;;;;5054889;28;20076;-40
2022/12/09 07:01:19;;;;;;;64.68;27.00;;;-1.70;99.90;;;;;;5054682;28;20411;-44
2022/12/09 07:03:48;;;;;;;59.72;29.77;;;-1.60;99.90;;;;;;5053756;28;20037;-41
2022/12/09 07:06:23;;;;;;;52.45;24.55;;;-1.80;99.90;;;;;;5055391;28;20043;-42
2022/12/09 07:08:49;;;;;;;54.38;23.10;;;-1.70;99.90;;;;;;5055498;28;20492;-41
2022/12/09 07:11:15;;;;;;;57.58;24.80;;;-1.80;99.90;;;;;;5055106;28;20131;-43
2022/12/09 07:13:41;;;;;;;61.22;25.70;;;-1.90;99.90;;;;;;5046695;28;20483;-42
2022/12/09 07:16:06;;;;;;;68.13;28.70;;;-1.60;99.90;;;;;;5055254;28;20045;-41
2022/12/09 07:18:32;;;;;;;78.82;31.50;;;-1.60;99.90;;;;;;5053755;28;20461;-42
2022/12/09 07:21:04;;;;;;;115.28;38.47;;;-1.50;99.90;;;;;;5053940;28;20044;-45
2022/12/09 07:23:29;;;;;;;157.18;44.15;;;-1.20;99.90;;;;;;5055149;28;20072;-43
2022/12/09 07:25:56;;;;;;;202.68;49.20;;;-1.00;99.90;;;;;;5057078;28;20594;-42
2022/12/09 07:28:21;;;;;;;372.33;58.13;;;-1.00;99.90;;;;;;5057354;28;20659;-42
2022/12/09 07:30:47;;;;;;;421.05;62.22;;;-1.00;99.90;;;;;;5058200;28;20086;-43
2022/12/09 07:33:13;;;;;;;535.40;66.32;;;-0.80;99.90;;;;;;5058093;28;20062;-44
2022/12/09 07:35:38;;;;;;;605.50;72.00;;;-0.90;99.90;;;;;;5055887;28;20510;-42
2022/12/09 07:38:04;;;;;;;547.60;72.00;;;-0.70;99.90;;;;;;5044449;28;20051;-41
2022/12/09 07:40:30;;;;;;;599.35;74.10;;;-0.80;99.90;;;;;;5050232;28;20055;-44
2022/12/09 07:42:55;;;;;;;397.50;58.05;;;-0.80;99.90;;;;;;5054787;28;20049;-41
2022/12/09 07:45:21;;;;;;;550.90;63.17;;;-0.70;99.90;;;;;;5055675;28;20584;-45
2022/12/09 07:47:47;;;;;;;528.45;65.13;;;-0.60;99.90;;;;;;5056911;28;20562;-42
2022/12/09 07:50:12;;;;;;;473.95;56.95;;;-0.80;99.90;;;;;;5055235;28;20107;-42
2022/12/09 07:52:38;;;;;;;510.98;63.13;;;-0.80;99.90;;;;;;5056731;28;20044;-43
2022/12/09 07:55:04;;;;;;;478.20;56.03;;;-0.70;99.90;;;;;;5053082;28;20060;-42
2022/12/09 07:57:29;;;;;;;484.20;60.35;;;-0.60;99.90;;;;;;5049444;28;20052;-43
2022/12/09 07:59:55;;;;;;;374.55;51.63;;;-0.60;99.90;;;;;;5056660;28;20062;-42
2022/12/09 08:02:21;;;;;;;433.35;58.83;;;-0.60;99.90;;;;;;5057135;28;20991;-44
2022/12/09 08:04:47;;;;;;;387.52;53.05;;;-0.80;99.90;;;;;;5055921;28;20064;-42
2022/12/09 08:07:12;;;;;;;367.95;52.13;;;-0.70;99.90;;;;;;5057968;28;20048;-44
2022/12/09 08:09:38;;;;;;;408.05;56.58;;;-0.60;99.90;;;;;;5058122;28;20183;-42
2022/12/09 08:12:04;;;;;;;452.92;58.10;;;-0.80;99.90;;;;;;5049956;28;20051;-44
2022/12/09 08:14:29;;;;;;;342.17;52.22;;;-0.60;99.90;;;;;;5055920;28;20527;-44
2022/12/09 08:16:55;;;;;;;380.38;53.88;;;-0.60;99.90;;;;;;5058533;28;20052;-43
2022/12/09 08:19:21;;;;;;;352.50;52.28;;;-0.70;99.90;;;;;;5058559;28;20351;-42
2022/12/09 08:21:46;;;;;;;414.55;58.42;;;-0.50;99.90;;;;;;5057429;28;20048;-44
2022/12/09 08:24:12;;;;;;;394.95;55.42;;;-0.60;99.90;;;;;;5057328;28;20361;-43
2022/12/09 08:26:38;;;;;;;396.90;52.20;;;-0.60;99.90;;;;;;5057778;28;20048;-42
2022/12/09 08:29:11;;;;;;;435.55;55.88;;;-0.50;99.90;;;;;;5057159;28;20132;-41
2022/12/09 08:31:38;;;;;;;270.17;47.60;;;-0.60;99.90;;;;;;5056572;28;20044;-41
2022/12/09 08:34:04;;;;;;;281.92;47.50;;;-0.60;99.90;;;;;;5057296;28;20117;-43
2022/12/09 08:36:31;;;;;;;323.55;51.72;;;-0.50;99.90;;;;;;5056872;28;20125;-45
2022/12/09 08:39:01;;;;;;;328.17;50.97;;;-0.40;99.90;;;;;;5058220;28;20049;-43
2022/12/09 08:41:35;;;;;;;377.13;54.40;;;-0.50;99.90;;;;;;5057430;28;20543;-41
2022/12/09 08:44:01;;;;;;;430.35;60.03;;;-0.50;99.90;;;;;;5057514;28;20661;-41
2022/12/09 08:46:27;;;;;;;392.00;57.25;;;-0.50;99.90;;;;;;5058221;28;20519;-43
2022/12/09 08:48:53;;;;;;;270.38;45.20;;;-0.40;99.90;;;;;;5058177;28;20052;-44
2022/12/09 08:51:18;;;;;;;397.83;53.85;;;-0.40;99.90;;;;;;5055831;28;20128;-45
2022/12/09 08:53:44;;;;;;;380.73;55.03;;;-0.30;99.90;;;;;;5057128;28;20131;-44
2022/12/09 08:56:11;;;;;;;382.42;55.55;;;-0.20;99.90;;;;;;5044571;28;20044;-45
2022/12/09 08:58:38;;;;;;;265.25;47.60;;;-0.30;99.90;;;;;;5057589;28;20478;-42
2022/12/09 09:01:04;;;;;;;240.93;44.90;;;-0.40;99.90;;;;;;5057313;28;20084;-42
2022/12/09 09:03:30;;;;;;;381.58;53.53;;;-0.20;99.90;;;;;;5057283;28;20054;-47
2022/12/09 09:06:04;;;;;;;376.20;54.60;;;-0.20;99.90;;;;;;5057903;28;20127;-43
2022/12/09 09:08:31;;;;;;;252.32;47.17;;;-0.30;99.90;;;;;;5057239;28;20044;-44
2022/12/09 09:10:57;;;;;;;161.32;41.90;;;-0.10;99.90;;;;;;5038670;28;20063;-41
2022/12/09 09:13:22;;;;;;;229.95;43.83;;;0.00;99.90;;;;;;5047167;28;20041;-41
2022/12/09 09:15:48;;;;;;;173.30;40.17;;;-0.10;99.90;;;;;;5056712;28;20044;-43
2022/12/09 09:18:14;;;;;;;138.45;39.10;;;-0.10;99.90;;;;;;5056728;28;20620;-41
2022/12/09 09:20:46;;;;;;;190.32;40.15;;;0.20;99.90;;;;;;5056649;28;20044;-44
2022/12/09 09:23:15;;;;;;;288.38;47.42;;;0.10;99.90;;;;;;5054904;28;20059;-42
2022/12/09 09:25:42;;;;;;;197.98;42.83;;;0.10;99.90;;;;;;5056374;28;20048;-45
2022/12/09 09:28:09;;;;;;;210.30;40.90;;;0.10;99.90;;;;;;5056931;28;20045;-44
2022/12/09 09:30:35;;;;;;;211.70;44.10;;;0.20;99.90;;;;;;5056657;28;20072;-42
2022/12/09 09:33:01;;;;;;;177.43;40.45;;;0.10;99.90;;;;;;5056613;28;20056;-43
2022/12/09 09:35:27;;;;;;;172.80;41.03;;;0.00;99.90;;;;;;5057461;28;20049;-42
2022/12/09 09:37:53;;;;;;;177.13;40.85;;;0.10;99.90;;;;;;5057284;28;20506;-43
2022/12/09 09:40:22;;;;;;;180.57;39.35;;;0.00;99.90;;;;;;5054411;28;20631;-41
2022/12/09 09:42:50;;;;;;;192.48;38.08;;;0.00;99.90;;;;;;5057054;28;20520;-42
2022/12/09 09:45:19;;;;;;;211.98;41.63;;;0.10;99.90;;;;;;5057038;28;20119;-41
2022/12/09 09:47:59;;;;;;;218.82;43.58;;;0.10;99.90;;;;;;5056839;28;20078;-42
2022/12/09 09:50:43;;;;;;;169.07;38.33;;;0.20;99.90;;;;;;5057296;28;20048;-43
2022/12/09 09:53:24;;;;;;;142.57;37.40;;;0.40;99.90;;;;;;5055999;28;20423;-44
2022/12/09 09:55:58;;;;;;;129.32;37.38;;;0.30;99.90;;;;;;5046854;28;20639;-44
2022/12/09 09:58:36;;;;;;;116.18;36.05;;;0.30;99.90;;;;;;5055470;28;20049;-45
2022/12/09 10:01:07;;;;;;;97.75;33.17;;;0.50;99.90;;;;;;5055893;28;20548;-44
2022/12/09 10:04:16;;;;;;;131.18;35.92;;;0.50;99.90;;;;;;5056294;28;20051;-42
2022/12/09 10:06:58;;;;;;;128.10;34.78;;;0.50;99.90;;;;;;5042877;28;20060;-42
2022/12/09 10:10:01;;;;;;;138.90;34.97;;;0.40;99.90;;;;;;5056366;28;20052;-42
2022/12/09 10:13:03;;;;;;;126.15;35.58;;;0.20;99.90;;;;;;5013487;28;20546;-42
2022/12/09 10:15:39;;;;;;;152.30;36.70;;;0.30;99.90;;;;;;5026132;28;20182;-46
2022/12/09 10:18:30;;;;;;;140.52;34.38;;;0.30;99.90;;;;;;5001068;28;20905;-42
2022/12/09 10:20:56;;;;;;;156.65;35.45;;;0.40;99.90;;;;;;4996761;28;20053;-42
2022/12/09 10:23:23;;;;;;;169.13;36.72;;;0.30;99.90;;;;;;5013280;28;20090;-41
2022/12/09 10:25:57;;;;;;;195.82;38.63;;;0.40;99.90;;;;;;4982756;28;20069;-41
2022/12/09 10:28:31;;;;;;;173.20;36.90;;;0.40;99.90;;;;;;5007921;28;20061;-41
2022/12/09 10:30:56;;;;;;;187.43;37.78;;;0.30;99.90;;;;;;5014672;28;20045;-42
2022/12/09 10:33:35;;;;;;;174.07;39.08;;;0.20;99.90;;;;;;5029472;28;20064;-41
2022/12/09 10:36:03;;;;;;;150.75;39.33;;;0.20;99.90;;;;;;5022058;28;20435;-43
2022/12/09 10:38:30;;;;;;;169.75;44.10;;;0.30;99.90;;;;;;5016897;28;20049;-42
2022/12/09 10:41:06;;;;;;;217.25;43.38;;;0.30;99.90;;;;;;4995996;28;20678;-42
2022/12/09 10:43:37;;;;;;;184.85;38.95;;;0.40;99.90;;;;;;5025895;28;20077;-45
2022/12/09 10:46:05;;;;;;;163.27;37.55;;;0.20;99.90;;;;;;4996594;28;20540;-42
2022/12/09 10:48:46;;;;;;;198.18;42.33;;;0.30;99.90;;;;;;5040009;28;20052;-44
2022/12/09 10:51:12;;;;;;;182.20;41.65;;;0.20;99.90;;;;;;5054111;28;20045;-43
2022/12/09 10:53:47;;;;;;;149.02;38.28;;;0.20;99.90;;;;;;5055844;28;20475;-44
2022/12/09 10:56:48;;;;;;;200.98;40.08;;;0.20;99.90;;;;;;5042831;28;20173;-44
2022/12/09 10:59:25;;;;;;;217.95;42.50;;;0.40;99.90;;;;;;5001187;28;20096;-44
2022/12/09 11:01:57;;;;;;;207.95;42.25;;;0.40;99.90;;;;;;4979623;28;20247;-46
2022/12/09 11:04:28;;;;;;;221.38;41.25;;;0.40;99.90;;;;;;4994301;28;20144;-44
2022/12/09 11:06:57;;;;;;;160.82;38.28;;;0.40;99.90;;;;;;5016503;28;20053;-45
2022/12/09 11:09:31;;;;;;;185.73;46.55;;;0.50;99.90;;;;;;5015867;28;20207;-44
2022/12/09 11:11:58;;;;;;;197.40;44.15;;;0.50;99.90;;;;;;5008881;28;20064;-47
2022/12/09 11:14:28;;;;;;;129.90;39.15;;;0.50;99.90;;;;;;5013040;28;20495;-44
2022/12/09 11:17:09;;;;;;;150.00;38.85;;;0.60;99.90;;;;;;5013796;28;20144;-43
2022/12/09 11:19:36;;;;;;;132.70;37.85;;;0.70;99.90;;;;;;5003104;28;20629;-44
2022/12/09 11:22:27;;;;;;;141.45;38.40;;;0.70;99.90;;;;;;4998955;28;20523;-47
2022/12/09 11:24:54;;;;;;;144.13;35.47;;;0.80;99.90;;;;;;5016735;28;20061;-42
2022/12/09 11:27:28;;;;;;;163.63;39.63;;;0.70;99.90;;;;;;5002884;28;20053;-43
2022/12/09 11:30:35;;;;;;;126.30;36.85;;;0.80;99.90;;;;;;4989641;28;20142;-42
2022/12/09 11:33:06;;;;;;;120.55;37.60;;;0.80;99.90;;;;;;4927167;29;20056;-42
2022/12/09 11:35:53;;;;;;;129.20;37.60;;;0.90;99.90;;;;;;4923698;28;20058;-46
2022/12/09 11:38:41;;;;;;;122.50;36.88;;;0.80;99.90;;;;;;4996132;28;20120;-42
2022/12/09 11:44:31;;;;;;;105.85;34.25;;;0.80;99.90;;;;;;4972894;28;20405;-44
2022/12/09 11:47:10;;;;;;;115.68;37.95;;;0.80;99.90;;;;;;4970792;28;20062;-43
2022/12/09 11:49:58;;;;;;;94.53;34.88;;;0.70;99.90;;;;;;4968231;28;20109;-42
2022/12/09 11:52:28;;;;;;;87.65;34.40;;;0.80;99.90;;;;;;4975589;28;20054;-43
2022/12/09 11:55:11;;;;;;;105.78;37.95;;;0.70;99.90;;;;;;4974610;28;20059;-43
2022/12/09 11:57:46;;;;;;;99.65;35.33;;;0.70;99.90;;;;;;4975699;28;20077;-43
2022/12/09 12:00:19;;;;;;;110.90;39.42;;;0.90;99.90;;;;;;4973878;28;20062;-43
2022/12/09 12:02:56;;;;;;;117.90;38.83;;;0.80;99.90;;;;;;4972276;28;20081;-44
2022/12/09 12:05:42;;;;;;;119.20;36.85;;;1.00;99.90;;;;;;4974249;28;20064;-44
2022/12/09 12:08:20;;;;;;;131.07;38.47;;;1.00;99.90;;;;;;4957984;28;20930;-45
2022/12/09 12:10:56;;;;;;;133.73;40.30;;;0.90;99.90;;;;;;5040567;28;20055;-42
2022/12/09 12:13:33;;;;;;;218.35;45.38;;;0.90;99.90;;;;;;5044214;28;20064;-44
2022/12/09 12:16:02;;;;;;;166.70;42.58;;;0.80;99.90;;;;;;5051867;28;20109;-43
2022/12/09 12:18:31;;;;;;;154.38;39.67;;;1.00;99.90;;;;;;5056787;28;20091;-42
2022/12/09 12:21:42;;;;;;;118.93;38.00;;;0.90;99.90;;;;;;5056685;28;20129;-46
2022/12/09 12:24:40;;;;;;;113.25;39.53;;;0.90;99.90;;;;;;5055193;28;20448;-47
2022/12/09 12:27:12;;;;;;;134.60;41.60;;;1.00;99.90;;;;;;5050071;28;20055;-42
2022/12/09 12:29:47;;;;;;;134.07;38.85;;;1.00;99.90;;;;;;5053995;28;20539;-41
2022/12/09 12:32:57;;;;;;;114.07;39.83;;;1.00;99.90;;;;;;5044754;28;20857;-43
2022/12/09 12:35:35;;;;;;;162.38;41.03;;;1.10;99.90;;;;;;5056268;28;20295;-44
2022/12/09 12:38:19;;;;;;;188.68;43.97;;;1.00;99.90;;;;;;5057988;28;20476;-45
2022/12/09 12:40:47;;;;;;;;;;;1.00;99.90;;;;;;5056400;28;20056;-44
2022/12/09 12:46:30;;;;;;;190.50;43.83;;;0.80;99.90;;;;;;5055105;28;20064;-44
2022/12/09 12:49:27;;;;;;;209.13;46.00;;;1.00;99.90;;;;;;5054663;28;20048;-42